sensor_id;sensor_type;location;lat;lon;timestamp;P1;durP1;ratioP1;P2;durP2;ratioP2
28910;SDS011;16028;42.642;23.310;2022-10-22T00:01:36;23.05;;;14.45;;
28910;SDS011;16028;42.642;23.310;2022-10-22T00:04:03;22.15;;;14.15;;
28910;SDS011;16028;42.642;23.310;2022-10-22T00:06:30;24.67;;;14.25;;
28910;SDS011;16028;42.642;23.310;2022-10-22T00:08:57;20.08;;;14.38;;
28910;SDS011;16028;42.642;23.310;2022-10-22T00:11:25;21.80;;;12.98;;
28910;SDS011;16028;42.642;23.310;2022-10-22T00:13:52;23.33;;;13.75;;
28910;SDS011;16028;42.642;23.310;2022-10-22T00:16:19;18.75;;;12.73;;
28910;SDS011;16028;42.642;23.310;2022-10-22T00:18:45;19.80;;;12.82;;
28910;SDS011;16028;42.642;23.310;2022-10-22T00:21:12;16.55;;;12.00;;
28910;SDS011;16028;42.642;23.310;2022-10-22T00:23:39;19.48;;;11.93;;
28910;SDS011;16028;42.642;23.310;2022-10-22T00:26:07;18.75;;;12.55;;
28910;SDS011;16028;42.642;23.310;2022-10-22T00:28:35;19.98;;;12.98;;
28910;SDS011;16028;42.642;23.310;2022-10-22T00:31:03;19.45;;;12.43;;
28910;SDS011;16028;42.642;23.310;2022-10-22T00:33:30;17.20;;;12.38;;
28910;SDS011;16028;42.642;23.310;2022-10-22T00:35:56;21.10;;;13.63;;
28910;SDS011;16028;42.642;23.310;2022-10-22T00:38:23;20.90;;;12.85;;
28910;SDS011;16028;42.642;23.310;2022-10-22T00:40:50;21.15;;;13.38;;
28910;SDS011;16028;42.642;23.310;2022-10-22T00:43:17;21.13;;;12.93;;
28910;SDS011;16028;42.642;23.310;2022-10-22T00:45:46;17.63;;;12.68;;
28910;SDS011;16028;42.642;23.310;2022-10-22T00:48:14;22.77;;;12.75;;
28910;SDS011;16028;42.642;23.310;2022-10-22T00:50:45;17.10;;;13.15;;
28910;SDS011;16028;42.642;23.310;2022-10-22T00:53:17;18.33;;;13.10;;
28910;SDS011;16028;42.642;23.310;2022-10-22T00:55:47;16.85;;;12.63;;
28910;SDS011;16028;42.642;23.310;2022-10-22T00:58:16;21.33;;;13.23;;
28910;SDS011;16028;42.642;23.310;2022-10-22T01:00:46;21.10;;;14.52;;
28910;SDS011;16028;42.642;23.310;2022-10-22T01:03:14;23.30;;;14.38;;
28910;SDS011;16028;42.642;23.310;2022-10-22T01:05:42;21.88;;;13.68;;
28910;SDS011;16028;42.642;23.310;2022-10-22T01:08:14;22.23;;;14.48;;
28910;SDS011;16028;42.642;23.310;2022-10-22T01:10:51;27.17;;;15.63;;
28910;SDS011;16028;42.642;23.310;2022-10-22T01:13:30;23.80;;;15.55;;
28910;SDS011;16028;42.642;23.310;2022-10-22T01:16:11;21.73;;;15.55;;
28910;SDS011;16028;42.642;23.310;2022-10-22T01:18:46;22.55;;;13.52;;
28910;SDS011;16028;42.642;23.310;2022-10-22T01:21:22;19.65;;;13.65;;
28910;SDS011;16028;42.642;23.310;2022-10-22T01:24:08;18.48;;;13.38;;
28910;SDS011;16028;42.642;23.310;2022-10-22T01:26:53;17.08;;;12.50;;
28910;SDS011;16028;42.642;23.310;2022-10-22T01:29:28;21.75;;;13.40;;
28910;SDS011;16028;42.642;23.310;2022-10-22T01:32:00;16.13;;;12.02;;
28910;SDS011;16028;42.642;23.310;2022-10-22T01:34:32;19.95;;;13.15;;
28910;SDS011;16028;42.642;23.310;2022-10-22T01:37:00;20.60;;;13.65;;
28910;SDS011;16028;42.642;23.310;2022-10-22T01:39:28;17.38;;;12.05;;
28910;SDS011;16028;42.642;23.310;2022-10-22T01:41:56;16.75;;;12.73;;
28910;SDS011;16028;42.642;23.310;2022-10-22T01:44:24;17.55;;;11.95;;
28910;SDS011;16028;42.642;23.310;2022-10-22T01:46:57;19.27;;;13.35;;
28910;SDS011;16028;42.642;23.310;2022-10-22T01:49:34;19.80;;;13.38;;
28910;SDS011;16028;42.642;23.310;2022-10-22T01:52:11;20.08;;;14.50;;
28910;SDS011;16028;42.642;23.310;2022-10-22T01:54:49;21.15;;;13.13;;
28910;SDS011;16028;42.642;23.310;2022-10-22T01:57:26;24.65;;;14.15;;
28910;SDS011;16028;42.642;23.310;2022-10-22T02:00:02;19.42;;;13.52;;
28910;SDS011;16028;42.642;23.310;2022-10-22T02:02:35;23.75;;;13.77;;
28910;SDS011;16028;42.642;23.310;2022-10-22T02:05:07;18.00;;;12.65;;
28910;SDS011;16028;42.642;23.310;2022-10-22T02:07:38;20.40;;;14.18;;
28910;SDS011;16028;42.642;23.310;2022-10-22T02:10:08;22.30;;;13.68;;
28910;SDS011;16028;42.642;23.310;2022-10-22T02:12:39;26.67;;;14.82;;
28910;SDS011;16028;42.642;23.310;2022-10-22T02:15:08;23.23;;;14.45;;
28910;SDS011;16028;42.642;23.310;2022-10-22T02:17:38;20.52;;;14.90;;
28910;SDS011;16028;42.642;23.310;2022-10-22T02:20:09;26.13;;;15.20;;
28910;SDS011;16028;42.642;23.310;2022-10-22T02:22:41;20.60;;;14.75;;
28910;SDS011;16028;42.642;23.310;2022-10-22T02:25:08;24.80;;;14.98;;
28910;SDS011;16028;42.642;23.310;2022-10-22T02:27:37;20.05;;;13.85;;
28910;SDS011;16028;42.642;23.310;2022-10-22T02:30:09;24.92;;;14.88;;
28910;SDS011;16028;42.642;23.310;2022-10-22T02:32:41;22.13;;;14.60;;
28910;SDS011;16028;42.642;23.310;2022-10-22T02:35:15;22.85;;;13.55;;
28910;SDS011;16028;42.642;23.310;2022-10-22T02:37:44;20.67;;;14.02;;
28910;SDS011;16028;42.642;23.310;2022-10-22T02:40:11;21.35;;;13.90;;
28910;SDS011;16028;42.642;23.310;2022-10-22T02:42:39;23.55;;;14.43;;
28910;SDS011;16028;42.642;23.310;2022-10-22T02:45:07;20.30;;;13.80;;
28910;SDS011;16028;42.642;23.310;2022-10-22T02:47:35;21.20;;;13.68;;
28910;SDS011;16028;42.642;23.310;2022-10-22T02:50:03;22.08;;;14.63;;
28910;SDS011;16028;42.642;23.310;2022-10-22T02:52:31;21.08;;;14.40;;
28910;SDS011;16028;42.642;23.310;2022-10-22T02:54:57;22.77;;;13.95;;
28910;SDS011;16028;42.642;23.310;2022-10-22T02:57:24;22.10;;;14.55;;
28910;SDS011;16028;42.642;23.310;2022-10-22T02:59:51;21.88;;;14.68;;
28910;SDS011;16028;42.642;23.310;2022-10-22T03:02:18;22.05;;;14.18;;
28910;SDS011;16028;42.642;23.310;2022-10-22T03:04:44;24.42;;;16.45;;
28910;SDS011;16028;42.642;23.310;2022-10-22T03:07:12;23.85;;;15.88;;
28910;SDS011;16028;42.642;23.310;2022-10-22T03:09:39;24.00;;;15.32;;
28910;SDS011;16028;42.642;23.310;2022-10-22T03:12:06;22.90;;;14.77;;
28910;SDS011;16028;42.642;23.310;2022-10-22T03:14:33;23.15;;;14.75;;
28910;SDS011;16028;42.642;23.310;2022-10-22T03:17:00;23.45;;;15.85;;
28910;SDS011;16028;42.642;23.310;2022-10-22T03:19:26;22.63;;;15.07;;
28910;SDS011;16028;42.642;23.310;2022-10-22T03:21:54;24.35;;;15.38;;
28910;SDS011;16028;42.642;23.310;2022-10-22T03:24:27;20.65;;;14.55;;
28910;SDS011;16028;42.642;23.310;2022-10-22T03:26:56;21.52;;;14.48;;
28910;SDS011;16028;42.642;23.310;2022-10-22T03:29:24;23.40;;;14.27;;
28910;SDS011;16028;42.642;23.310;2022-10-22T03:31:52;21.10;;;15.27;;
28910;SDS011;16028;42.642;23.310;2022-10-22T03:34:19;27.67;;;14.98;;
28910;SDS011;16028;42.642;23.310;2022-10-22T03:36:46;21.80;;;14.77;;
28910;SDS011;16028;42.642;23.310;2022-10-22T03:39:13;21.40;;;14.13;;
28910;SDS011;16028;42.642;23.310;2022-10-22T03:41:45;20.60;;;13.70;;
28910;SDS011;16028;42.642;23.310;2022-10-22T03:44:13;22.92;;;14.32;;
28910;SDS011;16028;42.642;23.310;2022-10-22T03:46:41;28.05;;;14.95;;
28910;SDS011;16028;42.642;23.310;2022-10-22T03:49:08;23.90;;;14.85;;
28910;SDS011;16028;42.642;23.310;2022-10-22T03:51:35;19.92;;;13.90;;
28910;SDS011;16028;42.642;23.310;2022-10-22T03:54:02;21.25;;;14.60;;
28910;SDS011;16028;42.642;23.310;2022-10-22T03:56:29;24.17;;;14.65;;
28910;SDS011;16028;42.642;23.310;2022-10-22T03:58:58;25.27;;;14.00;;
28910;SDS011;16028;42.642;23.310;2022-10-22T04:01:26;21.52;;;14.18;;
28910;SDS011;16028;42.642;23.310;2022-10-22T04:03:54;22.38;;;14.93;;
28910;SDS011;16028;42.642;23.310;2022-10-22T04:06:22;19.52;;;14.13;;
28910;SDS011;16028;42.642;23.310;2022-10-22T04:08:49;28.05;;;15.88;;
28910;SDS011;16028;42.642;23.310;2022-10-22T04:11:16;28.77;;;16.80;;
28910;SDS011;16028;42.642;23.310;2022-10-22T04:13:43;30.92;;;19.15;;
28910;SDS011;16028;42.642;23.310;2022-10-22T04:16:12;26.08;;;18.70;;
28910;SDS011;16028;42.642;23.310;2022-10-22T04:18:41;28.80;;;18.45;;
28910;SDS011;16028;42.642;23.310;2022-10-22T04:21:09;27.55;;;17.52;;
28910;SDS011;16028;42.642;23.310;2022-10-22T04:23:37;30.42;;;17.55;;
28910;SDS011;16028;42.642;23.310;2022-10-22T04:26:06;25.17;;;17.55;;
28910;SDS011;16028;42.642;23.310;2022-10-22T04:28:33;29.60;;;19.20;;
28910;SDS011;16028;42.642;23.310;2022-10-22T04:31:05;31.88;;;20.15;;
28910;SDS011;16028;42.642;23.310;2022-10-22T04:33:34;33.83;;;18.23;;
28910;SDS011;16028;42.642;23.310;2022-10-22T04:36:04;25.80;;;16.50;;
28910;SDS011;16028;42.642;23.310;2022-10-22T04:38:32;28.70;;;18.45;;
28910;SDS011;16028;42.642;23.310;2022-10-22T04:41:06;33.03;;;19.13;;
28910;SDS011;16028;42.642;23.310;2022-10-22T04:43:34;27.90;;;18.67;;
28910;SDS011;16028;42.642;23.310;2022-10-22T04:46:01;32.45;;;19.33;;
28910;SDS011;16028;42.642;23.310;2022-10-22T04:48:27;34.00;;;19.33;;
28910;SDS011;16028;42.642;23.310;2022-10-22T04:50:56;30.10;;;19.10;;
28910;SDS011;16028;42.642;23.310;2022-10-22T04:53:24;28.42;;;18.83;;
28910;SDS011;16028;42.642;23.310;2022-10-22T04:55:51;28.50;;;18.48;;
28910;SDS011;16028;42.642;23.310;2022-10-22T04:58:18;29.13;;;18.88;;
28910;SDS011;16028;42.642;23.310;2022-10-22T05:00:45;27.70;;;19.67;;
28910;SDS011;16028;42.642;23.310;2022-10-22T05:03:12;32.78;;;20.85;;
28910;SDS011;16028;42.642;23.310;2022-10-22T05:05:38;35.95;;;21.67;;
28910;SDS011;16028;42.642;23.310;2022-10-22T05:08:06;33.22;;;21.70;;
28910;SDS011;16028;42.642;23.310;2022-10-22T05:10:33;34.05;;;21.08;;
28910;SDS011;16028;42.642;23.310;2022-10-22T05:13:00;36.10;;;21.48;;
28910;SDS011;16028;42.642;23.310;2022-10-22T05:15:27;36.75;;;22.83;;
28910;SDS011;16028;42.642;23.310;2022-10-22T05:17:53;33.92;;;21.30;;
28910;SDS011;16028;42.642;23.310;2022-10-22T05:20:20;32.90;;;20.13;;
28910;SDS011;16028;42.642;23.310;2022-10-22T05:22:47;34.15;;;19.13;;
28910;SDS011;16028;42.642;23.310;2022-10-22T05:25:15;31.75;;;20.10;;
28910;SDS011;16028;42.642;23.310;2022-10-22T05:27:42;27.33;;;18.60;;
28910;SDS011;16028;42.642;23.310;2022-10-22T05:30:09;36.20;;;22.00;;
28910;SDS011;16028;42.642;23.310;2022-10-22T05:32:36;34.25;;;21.83;;
28910;SDS011;16028;42.642;23.310;2022-10-22T05:35:03;38.33;;;24.30;;
28910;SDS011;16028;42.642;23.310;2022-10-22T05:37:30;43.42;;;26.65;;
28910;SDS011;16028;42.642;23.310;2022-10-22T05:39:56;48.28;;;28.17;;
28910;SDS011;16028;42.642;23.310;2022-10-22T05:42:24;41.83;;;23.05;;
28910;SDS011;16028;42.642;23.310;2022-10-22T05:44:51;40.25;;;23.95;;
28910;SDS011;16028;42.642;23.310;2022-10-22T05:47:18;35.22;;;22.05;;
28910;SDS011;16028;42.642;23.310;2022-10-22T05:49:45;35.08;;;22.20;;
28910;SDS011;16028;42.642;23.310;2022-10-22T05:52:11;35.90;;;23.58;;
28910;SDS011;16028;42.642;23.310;2022-10-22T05:54:38;35.92;;;21.75;;
28910;SDS011;16028;42.642;23.310;2022-10-22T05:57:05;33.95;;;21.90;;
28910;SDS011;16028;42.642;23.310;2022-10-22T05:59:33;34.38;;;22.50;;
28910;SDS011;16028;42.642;23.310;2022-10-22T06:02:00;36.97;;;21.63;;
28910;SDS011;16028;42.642;23.310;2022-10-22T06:04:27;37.55;;;23.75;;
28910;SDS011;16028;42.642;23.310;2022-10-22T06:06:54;36.97;;;23.48;;
28910;SDS011;16028;42.642;23.310;2022-10-22T06:09:21;40.63;;;24.77;;
28910;SDS011;16028;42.642;23.310;2022-10-22T06:11:50;37.53;;;25.05;;
28910;SDS011;16028;42.642;23.310;2022-10-22T06:14:18;38.00;;;23.55;;
28910;SDS011;16028;42.642;23.310;2022-10-22T06:16:46;38.25;;;24.05;;
28910;SDS011;16028;42.642;23.310;2022-10-22T06:19:14;44.38;;;25.13;;
28910;SDS011;16028;42.642;23.310;2022-10-22T06:21:43;38.17;;;24.60;;
28910;SDS011;16028;42.642;23.310;2022-10-22T06:24:10;43.35;;;25.02;;
28910;SDS011;16028;42.642;23.310;2022-10-22T06:26:37;40.97;;;26.85;;
28910;SDS011;16028;42.642;23.310;2022-10-22T06:29:05;41.05;;;24.80;;
28910;SDS011;16028;42.642;23.310;2022-10-22T06:31:32;43.80;;;24.42;;
28910;SDS011;16028;42.642;23.310;2022-10-22T06:34:02;43.65;;;26.75;;
28910;SDS011;16028;42.642;23.310;2022-10-22T06:36:29;46.22;;;26.58;;
28910;SDS011;16028;42.642;23.310;2022-10-22T06:38:56;47.65;;;29.17;;
28910;SDS011;16028;42.642;23.310;2022-10-22T06:41:22;47.28;;;26.95;;
28910;SDS011;16028;42.642;23.310;2022-10-22T06:43:50;53.70;;;28.98;;
28910;SDS011;16028;42.642;23.310;2022-10-22T06:46:17;50.15;;;26.38;;
28910;SDS011;16028;42.642;23.310;2022-10-22T06:48:47;43.30;;;26.05;;
28910;SDS011;16028;42.642;23.310;2022-10-22T06:51:16;48.72;;;27.33;;
28910;SDS011;16028;42.642;23.310;2022-10-22T06:53:42;39.50;;;26.27;;
28910;SDS011;16028;42.642;23.310;2022-10-22T06:56:14;44.88;;;25.70;;
28910;SDS011;16028;42.642;23.310;2022-10-22T06:58:42;42.67;;;26.95;;
28910;SDS011;16028;42.642;23.310;2022-10-22T07:01:09;47.35;;;26.75;;
28910;SDS011;16028;42.642;23.310;2022-10-22T07:03:38;48.28;;;27.67;;
28910;SDS011;16028;42.642;23.310;2022-10-22T07:06:06;49.38;;;27.00;;
28910;SDS011;16028;42.642;23.310;2022-10-22T07:08:36;43.75;;;26.55;;
28910;SDS011;16028;42.642;23.310;2022-10-22T07:11:04;54.35;;;27.17;;
28910;SDS011;16028;42.642;23.310;2022-10-22T07:13:32;55.03;;;27.98;;
28910;SDS011;16028;42.642;23.310;2022-10-22T07:15:59;49.38;;;27.60;;
28910;SDS011;16028;42.642;23.310;2022-10-22T07:18:26;43.67;;;28.30;;
28910;SDS011;16028;42.642;23.310;2022-10-22T07:20:53;47.67;;;28.23;;
28910;SDS011;16028;42.642;23.310;2022-10-22T07:23:20;51.58;;;28.90;;
28910;SDS011;16028;42.642;23.310;2022-10-22T07:25:48;49.72;;;29.13;;
28910;SDS011;16028;42.642;23.310;2022-10-22T07:28:15;47.17;;;28.55;;
28910;SDS011;16028;42.642;23.310;2022-10-22T07:30:42;49.00;;;29.10;;
28910;SDS011;16028;42.642;23.310;2022-10-22T07:33:08;54.58;;;28.30;;
28910;SDS011;16028;42.642;23.310;2022-10-22T07:35:35;42.85;;;26.95;;
28910;SDS011;16028;42.642;23.310;2022-10-22T07:38:03;43.22;;;26.80;;
28910;SDS011;16028;42.642;23.310;2022-10-22T07:40:30;48.13;;;28.30;;
28910;SDS011;16028;42.642;23.310;2022-10-22T07:42:59;44.88;;;26.75;;
28910;SDS011;16028;42.642;23.310;2022-10-22T07:45:25;46.70;;;26.98;;
28910;SDS011;16028;42.642;23.310;2022-10-22T07:47:52;46.22;;;27.85;;
28910;SDS011;16028;42.642;23.310;2022-10-22T07:50:19;47.20;;;28.45;;
28910;SDS011;16028;42.642;23.310;2022-10-22T07:52:46;48.20;;;26.83;;
28910;SDS011;16028;42.642;23.310;2022-10-22T07:55:13;44.33;;;27.05;;
28910;SDS011;16028;42.642;23.310;2022-10-22T07:57:39;51.13;;;27.65;;
28910;SDS011;16028;42.642;23.310;2022-10-22T08:00:08;40.40;;;26.58;;
28910;SDS011;16028;42.642;23.310;2022-10-22T08:02:36;45.10;;;27.00;;
28910;SDS011;16028;42.642;23.310;2022-10-22T08:05:03;37.25;;;24.58;;
28910;SDS011;16028;42.642;23.310;2022-10-22T08:07:30;43.10;;;24.08;;
28910;SDS011;16028;42.642;23.310;2022-10-22T08:09:56;38.08;;;23.67;;
28910;SDS011;16028;42.642;23.310;2022-10-22T08:12:23;28.13;;;19.50;;
28910;SDS011;16028;42.642;23.310;2022-10-22T08:14:50;31.25;;;20.20;;
28910;SDS011;16028;42.642;23.310;2022-10-22T08:17:18;32.40;;;19.73;;
28910;SDS011;16028;42.642;23.310;2022-10-22T08:19:44;34.33;;;21.30;;
28910;SDS011;16028;42.642;23.310;2022-10-22T08:22:11;35.75;;;20.85;;
28910;SDS011;16028;42.642;23.310;2022-10-22T08:24:38;27.40;;;19.45;;
28910;SDS011;16028;42.642;23.310;2022-10-22T08:27:05;37.13;;;23.27;;
28910;SDS011;16028;42.642;23.310;2022-10-22T08:29:32;34.22;;;20.40;;
28910;SDS011;16028;42.642;23.310;2022-10-22T08:31:58;33.33;;;21.05;;
28910;SDS011;16028;42.642;23.310;2022-10-22T08:34:28;32.38;;;22.05;;
28910;SDS011;16028;42.642;23.310;2022-10-22T08:36:55;31.85;;;20.08;;
28910;SDS011;16028;42.642;23.310;2022-10-22T08:39:22;30.45;;;20.05;;
28910;SDS011;16028;42.642;23.310;2022-10-22T08:41:50;33.53;;;21.33;;
28910;SDS011;16028;42.642;23.310;2022-10-22T08:44:29;29.10;;;20.27;;
28910;SDS011;16028;42.642;23.310;2022-10-22T08:47:16;32.13;;;19.77;;
28910;SDS011;16028;42.642;23.310;2022-10-22T08:49:59;32.58;;;18.65;;
28910;SDS011;16028;42.642;23.310;2022-10-22T08:52:26;31.60;;;19.27;;
28910;SDS011;16028;42.642;23.310;2022-10-22T08:54:53;28.88;;;19.98;;
28910;SDS011;16028;42.642;23.310;2022-10-22T08:57:30;30.30;;;18.27;;
28910;SDS011;16028;42.642;23.310;2022-10-22T09:00:10;40.30;;;22.38;;
28910;SDS011;16028;42.642;23.310;2022-10-22T09:02:42;38.40;;;23.40;;
28910;SDS011;16028;42.642;23.310;2022-10-22T09:05:21;34.83;;;24.73;;
28910;SDS011;16028;42.642;23.310;2022-10-22T09:07:58;42.55;;;26.77;;
28910;SDS011;16028;42.642;23.310;2022-10-22T09:10:26;37.53;;;25.85;;
28910;SDS011;16028;42.642;23.310;2022-10-22T09:12:57;40.28;;;26.92;;
28910;SDS011;16028;42.642;23.310;2022-10-22T09:15:24;44.00;;;29.45;;
28910;SDS011;16028;42.642;23.310;2022-10-22T09:17:55;40.90;;;27.98;;
28910;SDS011;16028;42.642;23.310;2022-10-22T09:20:32;45.88;;;27.98;;
28910;SDS011;16028;42.642;23.310;2022-10-22T09:23:12;52.78;;;28.15;;
28910;SDS011;16028;42.642;23.310;2022-10-22T09:25:54;41.17;;;26.27;;
28910;SDS011;16028;42.642;23.310;2022-10-22T09:28:23;40.80;;;24.80;;
28910;SDS011;16028;42.642;23.310;2022-10-22T09:30:49;44.97;;;25.42;;
28910;SDS011;16028;42.642;23.310;2022-10-22T09:33:18;38.88;;;23.80;;
28910;SDS011;16028;42.642;23.310;2022-10-22T09:35:51;37.80;;;22.15;;
28910;SDS011;16028;42.642;23.310;2022-10-22T09:38:20;38.28;;;24.75;;
28910;SDS011;16028;42.642;23.310;2022-10-22T09:40:51;40.50;;;23.80;;
28910;SDS011;16028;42.642;23.310;2022-10-22T09:43:19;41.10;;;24.60;;
28910;SDS011;16028;42.642;23.310;2022-10-22T09:45:46;36.03;;;23.17;;
28910;SDS011;16028;42.642;23.310;2022-10-22T09:48:19;40.53;;;25.05;;
28910;SDS011;16028;42.642;23.310;2022-10-22T09:50:56;33.92;;;20.55;;
28910;SDS011;16028;42.642;23.310;2022-10-22T09:53:29;34.88;;;21.27;;
28910;SDS011;16028;42.642;23.310;2022-10-22T09:55:57;32.13;;;21.38;;
28910;SDS011;16028;42.642;23.310;2022-10-22T09:58:26;34.33;;;21.15;;
28910;SDS011;16028;42.642;23.310;2022-10-22T10:00:54;31.00;;;20.35;;
28910;SDS011;16028;42.642;23.310;2022-10-22T10:03:23;30.85;;;19.63;;
28910;SDS011;16028;42.642;23.310;2022-10-22T10:05:53;34.35;;;20.35;;
28910;SDS011;16028;42.642;23.310;2022-10-22T10:08:23;35.45;;;19.65;;
28910;SDS011;16028;42.642;23.310;2022-10-22T10:10:51;33.78;;;20.40;;
28910;SDS011;16028;42.642;23.310;2022-10-22T10:13:27;30.48;;;19.50;;
28910;SDS011;16028;42.642;23.310;2022-10-22T10:16:06;29.48;;;20.17;;
28910;SDS011;16028;42.642;23.310;2022-10-22T10:18:44;31.83;;;20.55;;
28910;SDS011;16028;42.642;23.310;2022-10-22T10:21:25;34.55;;;19.67;;
28910;SDS011;16028;42.642;23.310;2022-10-22T10:23:57;34.17;;;21.38;;
28910;SDS011;16028;42.642;23.310;2022-10-22T10:26:30;33.85;;;21.25;;
28910;SDS011;16028;42.642;23.310;2022-10-22T10:29:05;36.33;;;21.27;;
28910;SDS011;16028;42.642;23.310;2022-10-22T10:31:44;38.00;;;21.95;;
28910;SDS011;16028;42.642;23.310;2022-10-22T10:34:26;36.20;;;21.13;;
28910;SDS011;16028;42.642;23.310;2022-10-22T10:37:09;33.90;;;19.58;;
28910;SDS011;16028;42.642;23.310;2022-10-22T10:39:47;33.60;;;20.92;;
28910;SDS011;16028;42.642;23.310;2022-10-22T10:42:29;33.72;;;20.13;;
28910;SDS011;16028;42.642;23.310;2022-10-22T10:45:05;29.10;;;18.33;;
28910;SDS011;16028;42.642;23.310;2022-10-22T10:47:47;34.78;;;20.33;;
28910;SDS011;16028;42.642;23.310;2022-10-22T10:50:28;35.38;;;21.10;;
28910;SDS011;16028;42.642;23.310;2022-10-22T10:53:02;37.47;;;19.77;;
28910;SDS011;16028;42.642;23.310;2022-10-22T10:55:41;29.20;;;19.85;;
28910;SDS011;16028;42.642;23.310;2022-10-22T10:58:16;33.28;;;19.38;;
28910;SDS011;16028;42.642;23.310;2022-10-22T11:00:51;33.70;;;23.30;;
28910;SDS011;16028;42.642;23.310;2022-10-22T11:03:33;36.22;;;19.40;;
28910;SDS011;16028;42.642;23.310;2022-10-22T11:06:13;34.47;;;19.08;;
28910;SDS011;16028;42.642;23.310;2022-10-22T11:08:44;27.70;;;18.33;;
28910;SDS011;16028;42.642;23.310;2022-10-22T11:11:20;30.30;;;17.80;;
28910;SDS011;16028;42.642;23.310;2022-10-22T11:13:51;30.40;;;18.00;;
28910;SDS011;16028;42.642;23.310;2022-10-22T11:16:22;31.25;;;18.02;;
28910;SDS011;16028;42.642;23.310;2022-10-22T11:18:54;28.02;;;16.92;;
28910;SDS011;16028;42.642;23.310;2022-10-22T11:21:28;28.23;;;16.75;;
28910;SDS011;16028;42.642;23.310;2022-10-22T11:24:03;32.95;;;17.10;;
28910;SDS011;16028;42.642;23.310;2022-10-22T11:26:40;29.50;;;17.00;;
28910;SDS011;16028;42.642;23.310;2022-10-22T11:29:12;32.53;;;17.23;;
28910;SDS011;16028;42.642;23.310;2022-10-22T11:31:42;28.88;;;17.85;;
28910;SDS011;16028;42.642;23.310;2022-10-22T11:34:13;28.83;;;16.85;;
28910;SDS011;16028;42.642;23.310;2022-10-22T11:36:43;33.28;;;20.63;;
28910;SDS011;16028;42.642;23.310;2022-10-22T11:42:04;26.00;;;15.32;;
28910;SDS011;16028;42.642;23.310;2022-10-22T11:44:44;27.00;;;16.55;;
28910;SDS011;16028;42.642;23.310;2022-10-22T11:47:23;22.90;;;14.30;;
28910;SDS011;16028;42.642;23.310;2022-10-22T11:49:55;24.25;;;13.88;;
28910;SDS011;16028;42.642;23.310;2022-10-22T11:52:25;21.48;;;14.82;;
28910;SDS011;16028;42.642;23.310;2022-10-22T11:55:10;21.40;;;13.55;;
28910;SDS011;16028;42.642;23.310;2022-10-22T11:57:57;25.90;;;14.05;;
28910;SDS011;16028;42.642;23.310;2022-10-22T12:00:32;18.52;;;13.35;;
28910;SDS011;16028;42.642;23.310;2022-10-22T12:03:13;22.02;;;13.18;;
28910;SDS011;16028;42.642;23.310;2022-10-22T12:05:42;22.52;;;13.45;;
28910;SDS011;16028;42.642;23.310;2022-10-22T12:08:17;21.35;;;13.77;;
28910;SDS011;16028;42.642;23.310;2022-10-22T12:10:54;22.08;;;12.55;;
28910;SDS011;16028;42.642;23.310;2022-10-22T12:13:27;17.73;;;12.70;;
28910;SDS011;16028;42.642;23.310;2022-10-22T12:15:57;20.58;;;13.57;;
28910;SDS011;16028;42.642;23.310;2022-10-22T12:18:34;24.20;;;14.60;;
28910;SDS011;16028;42.642;23.310;2022-10-22T12:21:08;31.95;;;18.52;;
28910;SDS011;16028;42.642;23.310;2022-10-22T12:23:38;19.77;;;12.98;;
28910;SDS011;16028;42.642;23.310;2022-10-22T12:26:05;21.95;;;12.05;;
28910;SDS011;16028;42.642;23.310;2022-10-22T12:28:49;19.55;;;13.38;;
28910;SDS011;16028;42.642;23.310;2022-10-22T12:31:16;23.90;;;12.90;;
28910;SDS011;16028;42.642;23.310;2022-10-22T12:33:43;20.40;;;12.73;;
28910;SDS011;16028;42.642;23.310;2022-10-22T12:36:14;20.55;;;12.30;;
28910;SDS011;16028;42.642;23.310;2022-10-22T12:38:44;15.85;;;11.70;;
28910;SDS011;16028;42.642;23.310;2022-10-22T12:41:12;23.50;;;12.20;;
28910;SDS011;16028;42.642;23.310;2022-10-22T12:43:39;17.00;;;11.82;;
28910;SDS011;16028;42.642;23.310;2022-10-22T12:46:10;22.48;;;12.48;;
28910;SDS011;16028;42.642;23.310;2022-10-22T12:48:39;15.10;;;11.88;;
28910;SDS011;16028;42.642;23.310;2022-10-22T12:51:08;17.13;;;11.23;;
28910;SDS011;16028;42.642;23.310;2022-10-22T12:53:41;24.60;;;12.52;;
28910;SDS011;16028;42.642;23.310;2022-10-22T12:56:11;17.17;;;12.15;;
28910;SDS011;16028;42.642;23.310;2022-10-22T12:58:41;23.17;;;11.85;;
28910;SDS011;16028;42.642;23.310;2022-10-22T13:01:12;16.75;;;11.30;;
28910;SDS011;16028;42.642;23.310;2022-10-22T13:03:41;21.33;;;12.10;;
28910;SDS011;16028;42.642;23.310;2022-10-22T13:06:13;17.77;;;11.02;;
28910;SDS011;16028;42.642;23.310;2022-10-22T13:08:56;19.23;;;11.63;;
28910;SDS011;16028;42.642;23.310;2022-10-22T13:11:30;19.02;;;11.48;;
28910;SDS011;16028;42.642;23.310;2022-10-22T13:14:01;20.45;;;12.15;;
28910;SDS011;16028;42.642;23.310;2022-10-22T13:16:30;16.45;;;11.63;;
28910;SDS011;16028;42.642;23.310;2022-10-22T13:18:57;26.50;;;12.30;;
28910;SDS011;16028;42.642;23.310;2022-10-22T13:21:25;13.90;;;10.25;;
28910;SDS011;16028;42.642;23.310;2022-10-22T13:23:55;25.52;;;11.07;;
28910;SDS011;16028;42.642;23.310;2022-10-22T13:26:24;17.77;;;10.48;;
28910;SDS011;16028;42.642;23.310;2022-10-22T13:28:57;16.55;;;10.85;;
28910;SDS011;16028;42.642;23.310;2022-10-22T13:31:25;18.65;;;11.10;;
28910;SDS011;16028;42.642;23.310;2022-10-22T13:33:58;18.75;;;10.60;;
28910;SDS011;16028;42.642;23.310;2022-10-22T13:36:27;18.83;;;11.48;;
28910;SDS011;16028;42.642;23.310;2022-10-22T13:38:54;17.35;;;11.15;;
28910;SDS011;16028;42.642;23.310;2022-10-22T13:41:22;24.73;;;12.02;;
28910;SDS011;16028;42.642;23.310;2022-10-22T13:43:50;21.33;;;12.88;;
28910;SDS011;16028;42.642;23.310;2022-10-22T13:46:18;20.20;;;12.18;;
28910;SDS011;16028;42.642;23.310;2022-10-22T13:48:45;22.67;;;13.38;;
28910;SDS011;16028;42.642;23.310;2022-10-22T13:51:16;16.38;;;12.23;;
28910;SDS011;16028;42.642;23.310;2022-10-22T13:53:44;23.17;;;13.13;;
28910;SDS011;16028;42.642;23.310;2022-10-22T13:56:12;19.15;;;12.35;;
28910;SDS011;16028;42.642;23.310;2022-10-22T13:58:41;26.08;;;12.38;;
28910;SDS011;16028;42.642;23.310;2022-10-22T14:01:11;18.60;;;12.32;;
28910;SDS011;16028;42.642;23.310;2022-10-22T14:03:43;17.88;;;12.20;;
28910;SDS011;16028;42.642;23.310;2022-10-22T14:06:11;21.48;;;11.98;;
28910;SDS011;16028;42.642;23.310;2022-10-22T14:08:40;20.90;;;11.75;;
28910;SDS011;16028;42.642;23.310;2022-10-22T14:11:09;16.35;;;11.30;;
28910;SDS011;16028;42.642;23.310;2022-10-22T14:13:36;16.70;;;11.98;;
28910;SDS011;16028;42.642;23.310;2022-10-22T14:16:03;20.63;;;11.93;;
28910;SDS011;16028;42.642;23.310;2022-10-22T14:18:32;25.05;;;14.95;;
28910;SDS011;16028;42.642;23.310;2022-10-22T14:21:00;24.35;;;15.20;;
28910;SDS011;16028;42.642;23.310;2022-10-22T14:23:32;30.08;;;17.65;;
28910;SDS011;16028;42.642;23.310;2022-10-22T14:26:02;27.58;;;17.67;;
28910;SDS011;16028;42.642;23.310;2022-10-22T14:28:31;32.63;;;17.42;;